createdAt,value
2022-09-26T00:01:39.952Z,34.60
2022-09-26T00:04:22.878Z,35.72
2022-09-26T00:06:55.927Z,32.33
2022-09-26T00:09:26.396Z,32.92
2022-09-26T00:11:56.967Z,28.55
2022-09-26T00:14:28.532Z,28.95
2022-09-26T00:16:56.324Z,33.50
2022-09-26T00:19:24.592Z,34.88
2022-09-26T00:21:51.972Z,31.75
2022-09-26T00:24:19.083Z,32.00
2022-09-26T00:26:46.424Z,30.77
2022-09-26T00:29:14.451Z,34.67
2022-09-26T00:31:45.484Z,32.08
2022-09-26T00:34:15.582Z,32.75
2022-09-26T00:36:42.741Z,34.05
2022-09-26T00:39:12.541Z,36.97
2022-09-26T00:41:39.702Z,28.75
2022-09-26T00:44:36.663Z,33.40
2022-09-26T00:47:05.533Z,33.38
2022-09-26T00:49:42.869Z,30.90
2022-09-26T00:52:24.834Z,28.17
2022-09-26T00:54:56.492Z,34.83
2022-09-26T00:57:41.901Z,33.20
2022-09-26T01:00:17.705Z,35.58
2022-09-26T01:02:50.666Z,35.42
2022-09-26T01:05:21.749Z,29.27
2022-09-26T01:07:50.971Z,28.80
2022-09-26T01:10:18.631Z,32.50
2022-09-26T01:12:45.642Z,33.00
2022-09-26T01:15:15.243Z,32.97
2022-09-26T01:17:44.472Z,31.58
2022-09-26T01:20:49.021Z,33.53
2022-09-26T01:24:22.187Z,31.15
2022-09-26T01:27:22.842Z,27.40
2022-09-26T01:30:14.711Z,28.60
2022-09-26T01:33:02.026Z,28.35
2022-09-26T01:35:52.264Z,27.50
2022-09-26T01:38:44.683Z,32.67
2022-09-26T01:41:39.256Z,26.33
2022-09-26T01:44:39.083Z,32.25
2022-09-26T01:47:51.379Z,30.10
2022-09-26T01:50:42.905Z,28.70
2022-09-26T01:53:22.511Z,28.83
2022-09-26T01:55:58.775Z,26.73
2022-09-26T01:58:42.890Z,30.05
2022-09-26T02:01:14.901Z,29.80
2022-09-26T02:03:58.997Z,25.98
2022-09-26T02:06:56.797Z,25.67
2022-09-26T02:09:40.975Z,26.80
2022-09-26T02:12:13.130Z,25.48
2022-09-26T02:14:43.385Z,28.77
2022-09-26T02:17:40.279Z,25.30
2022-09-26T02:20:26.982Z,30.58
2022-09-26T02:22:57.915Z,28.13
2022-09-26T02:25:25.955Z,27.50
2022-09-26T02:27:52.989Z,24.77
2022-09-26T02:30:22.556Z,29.55
2022-09-26T02:32:49.654Z,27.33
2022-09-26T02:35:36.161Z,28.23
2022-09-26T02:38:05.732Z,27.90
2022-09-26T02:40:58.110Z,24.55
2022-09-26T02:43:36.985Z,25.60
2022-09-26T02:46:40.961Z,30.25
2022-09-26T02:49:58.882Z,26.17
2022-09-26T02:52:49.007Z,28.08
2022-09-26T02:55:37.293Z,27.60
2022-09-26T02:58:13.856Z,26.33
2022-09-26T03:01:03.173Z,25.45
2022-09-26T03:03:43.266Z,26.80
2022-09-26T03:06:15.925Z,27.20
2022-09-26T03:08:47.520Z,35.45
2022-09-26T03:11:24.816Z,26.83
2022-09-26T03:13:55.046Z,23.83
2022-09-26T03:16:25.792Z,28.55
2022-09-26T03:19:07.959Z,28.27
2022-09-26T03:21:37.091Z,29.60
2022-09-26T03:24:04.574Z,31.00
2022-09-26T03:26:32.903Z,24.95
2022-09-26T03:29:00.150Z,27.42
2022-09-26T03:31:28.427Z,26.17
2022-09-26T03:34:00.043Z,23.98
2022-09-26T03:36:32.314Z,27.40
2022-09-26T03:38:59.542Z,28.08
2022-09-26T03:41:26.687Z,24.48
2022-09-26T03:43:53.838Z,39.72
2022-09-26T03:46:20.843Z,32.50
2022-09-26T03:48:49.183Z,32.17
2022-09-26T03:51:16.694Z,34.83
2022-09-26T03:53:47.151Z,28.55
2022-09-26T03:56:18.117Z,31.98
2022-09-26T03:58:46.089Z,32.63
2022-09-26T04:01:16.748Z,33.78
2022-09-26T04:03:50.844Z,28.17
2022-09-26T04:06:20.677Z,27.13
2022-09-26T04:08:52.643Z,31.70
2022-09-26T04:11:24.721Z,30.52
2022-09-26T04:16:26.274Z,32.72
2022-09-26T04:18:57.539Z,27.58
2022-09-26T04:21:29.720Z,29.02
2022-09-26T04:26:24.825Z,36.35
2022-09-26T04:28:55.092Z,34.70
2022-09-26T04:31:24.268Z,41.80
2022-09-26T04:33:51.950Z,39.25
2022-09-26T04:36:21.011Z,39.55
2022-09-26T04:38:48.110Z,33.95
2022-09-26T04:41:21.188Z,36.65
2022-09-26T04:43:49.217Z,29.48
2022-09-26T04:46:28.203Z,35.20
2022-09-26T04:49:00.419Z,31.67
2022-09-26T04:51:30.603Z,43.60
2022-09-26T04:53:58.149Z,35.15
2022-09-26T04:56:28.910Z,34.97
2022-09-26T04:58:58.409Z,35.28
2022-09-26T05:01:26.240Z,30.50
2022-09-26T05:03:57.137Z,33.45
2022-09-26T05:06:24.406Z,37.75
2022-09-26T05:08:51.686Z,35.53
2022-09-26T05:11:21.731Z,37.53
2022-09-26T05:13:53.742Z,42.63
2022-09-26T05:18:56.063Z,40.58
2022-09-26T05:21:23.079Z,37.20
2022-09-26T05:24:08.457Z,38.50
2022-09-26T05:26:46.631Z,37.70
2022-09-26T05:29:17.435Z,36.00
2022-09-26T05:31:44.632Z,38.60
2022-09-26T05:34:16.847Z,34.15
2022-09-26T05:36:45.684Z,40.78
2022-09-26T05:39:31.615Z,32.40
2022-09-26T05:41:59.867Z,38.28
2022-09-26T05:44:27.588Z,44.00
2022-09-26T05:46:55.218Z,34.10
2022-09-26T05:49:26.004Z,38.88
2022-09-26T05:51:53.866Z,32.63
2022-09-26T05:54:20.966Z,43.28
2022-09-26T05:56:48.358Z,34.00
2022-09-26T05:59:20.433Z,44.63
2022-09-26T06:01:50.569Z,38.55
2022-09-26T06:04:19.890Z,51.88
2022-09-26T06:06:49.098Z,50.55
2022-09-26T06:09:16.241Z,48.20
2022-09-26T06:11:43.428Z,32.25
2022-09-26T06:14:10.431Z,46.67
2022-09-26T06:16:37.476Z,65.47
2022-09-26T06:19:04.599Z,80.45
2022-09-26T06:21:31.760Z,49.58
2022-09-26T06:23:58.781Z,62.70
2022-09-26T06:26:29.005Z,54.90
2022-09-26T06:29:19.627Z,53.03
2022-09-26T06:31:46.680Z,45.80
2022-09-26T06:34:14.850Z,51.47
2022-09-26T06:36:41.814Z,50.03
2022-09-26T06:39:08.914Z,42.40
2022-09-26T06:41:36.034Z,52.83
2022-09-26T06:44:03.173Z,40.75
2022-09-26T06:46:33.343Z,48.33
2022-09-26T06:49:02.791Z,48.42
2022-09-26T06:51:29.893Z,39.75
2022-09-26T06:54:00.571Z,43.25
2022-09-26T06:56:27.712Z,48.55
2022-09-26T06:58:54.871Z,39.60
2022-09-26T07:01:24.477Z,35.33
2022-09-26T07:03:54.137Z,37.47
2022-09-26T07:06:21.437Z,32.28
2022-09-26T07:09:08.561Z,35.40
2022-09-26T07:11:50.906Z,30.25
2022-09-26T07:14:23.382Z,31.48
2022-09-26T07:16:52.005Z,27.17
2022-09-26T07:19:19.353Z,35.67
2022-09-26T07:21:48.113Z,28.95
2022-09-26T07:24:15.135Z,33.53
2022-09-26T07:26:42.830Z,26.76
2022-09-26T07:29:10.591Z,33.28
2022-09-26T07:31:37.674Z,26.40
2022-09-26T07:34:05.006Z,27.38
2022-09-26T07:36:32.048Z,35.13
2022-09-26T07:38:59.447Z,26.00
2022-09-26T07:41:31.123Z,23.95
2022-09-26T07:47:05.265Z,26.92
2022-09-26T07:49:50.675Z,25.52
2022-09-26T07:52:18.449Z,31.60
2022-09-26T07:54:45.613Z,29.90
2022-09-26T07:57:12.687Z,26.52
2022-09-26T07:59:39.835Z,24.92
2022-09-26T08:02:20.794Z,26.98
2022-09-26T08:04:48.053Z,25.90
2022-09-26T08:07:16.147Z,22.95
2022-09-26T08:09:45.698Z,23.88
2022-09-26T08:12:14.624Z,22.35
2022-09-26T08:14:41.989Z,25.42
2022-09-26T08:17:13.482Z,27.85
2022-09-26T08:19:41.306Z,22.92
2022-09-26T08:22:11.870Z,27.67
2022-09-26T08:24:39.756Z,21.88
2022-09-26T08:27:07.066Z,25.98
2022-09-26T08:29:35.114Z,28.63
2022-09-26T08:32:03.454Z,23.48
2022-09-26T08:34:32.212Z,25.05
2022-09-26T08:36:59.252Z,22.05
2022-09-26T08:39:29.038Z,23.50
2022-09-26T08:42:28.769Z,24.73
2022-09-26T08:45:47.914Z,24.23
2022-09-26T08:48:30.447Z,23.05
2022-09-26T08:51:34.429Z,19.92
2022-09-26T08:54:12.963Z,21.67
2022-09-26T08:56:47.260Z,21.92
2022-09-26T08:59:44.028Z,24.75
2022-09-26T09:02:50.161Z,24.42
2022-09-26T09:05:23.248Z,25.75
2022-09-26T09:07:55.080Z,20.63
2022-09-26T09:11:06.929Z,19.75
2022-09-26T09:13:58.003Z,20.10
2022-09-26T09:16:54.589Z,19.83
2022-09-26T09:19:30.121Z,19.95
2022-09-26T09:22:18.713Z,15.80
2022-09-26T09:25:11.901Z,16.75
2022-09-26T09:28:29.219Z,21.05
2022-09-26T09:31:05.543Z,16.80
2022-09-26T09:33:41.525Z,21.95
2022-09-26T09:36:23.783Z,15.82
2022-09-26T09:38:53.100Z,13.02
2022-09-26T09:41:53.020Z,16.58
2022-09-26T09:45:05.249Z,14.15
2022-09-26T09:47:38.443Z,12.80
2022-09-26T09:50:36.685Z,11.10
2022-09-26T09:53:50.144Z,12.52
2022-09-26T09:56:52.072Z,11.55
2022-09-26T09:59:45.011Z,9.38
2022-09-26T10:02:40.953Z,12.93
2022-09-26T10:05:23.910Z,10.18
2022-09-26T10:07:58.523Z,8.40
2022-09-26T10:11:00.478Z,9.32
2022-09-26T10:13:31.630Z,10.52
2022-09-26T10:16:06.603Z,11.83
2022-09-26T10:18:52.204Z,7.80
2022-09-26T10:21:19.760Z,7.68
2022-09-26T10:23:50.954Z,7.00
2022-09-26T10:26:30.493Z,7.45
2022-09-26T10:29:08.244Z,8.23
2022-09-26T10:31:43.063Z,12.07
2022-09-26T10:34:32.451Z,7.85
2022-09-26T10:37:24.774Z,7.78
2022-09-26T10:40:16.602Z,8.85
2022-09-26T10:42:47.250Z,8.95
2022-09-26T10:45:21.273Z,13.85
2022-09-26T10:47:51.369Z,11.43
2022-09-26T10:50:28.521Z,11.30
2022-09-26T10:53:04.846Z,10.07
2022-09-26T10:55:44.039Z,14.52
2022-09-26T10:58:24.205Z,12.45
2022-09-26T11:00:51.767Z,10.50
2022-09-26T11:03:26.213Z,12.15
2022-09-26T11:05:59.987Z,8.73
2022-09-26T11:08:37.873Z,7.63
2022-09-26T11:11:13.734Z,8.55
2022-09-26T11:14:03.628Z,4.88
2022-09-26T11:16:44.606Z,6.68
2022-09-26T11:19:22.331Z,5.53
2022-09-26T11:22:27.296Z,6.15
2022-09-26T11:25:30.534Z,8.13
2022-09-26T11:28:12.031Z,9.68
2022-09-26T11:30:47.884Z,8.10
2022-09-26T11:33:18.835Z,11.30
2022-09-26T11:36:06.614Z,6.97
2022-09-26T11:38:55.956Z,7.95
2022-09-26T11:42:04.130Z,7.82
2022-09-26T11:44:54.445Z,6.93
2022-09-26T11:48:18.891Z,9.82
2022-09-26T11:50:56.517Z,6.97
2022-09-26T11:53:56.305Z,8.90
2022-09-26T11:57:00.059Z,9.98
2022-09-26T11:59:36.420Z,10.82
2022-09-26T12:02:41.134Z,8.82
2022-09-26T12:05:39.988Z,5.45
2022-09-26T12:08:47.737Z,8.10
2022-09-26T12:11:32.830Z,9.00
2022-09-26T12:14:25.693Z,7.43
2022-09-26T12:17:01.927Z,8.63
2022-09-26T12:19:47.347Z,7.03
2022-09-26T12:23:05.702Z,12.20
2022-09-26T12:26:02.635Z,10.45
2022-09-26T12:29:02.946Z,9.75
2022-09-26T12:31:52.337Z,8.77
2022-09-26T12:34:37.825Z,13.25
2022-09-26T12:37:39.442Z,9.25
2022-09-26T12:41:04.716Z,10.50
2022-09-26T12:44:02.562Z,7.30
2022-09-26T12:46:58.334Z,8.25
2022-09-26T12:49:36.469Z,5.15
2022-09-26T12:52:27.716Z,4.68
2022-09-26T12:55:00.410Z,5.77
2022-09-26T12:57:52.296Z,4.25
2022-09-26T13:00:22.227Z,3.28
2022-09-26T13:03:21.226Z,3.70
2022-09-26T13:06:16.158Z,4.93
2022-09-26T13:09:20.041Z,8.55
2022-09-26T13:12:26.505Z,3.97
2022-09-26T13:15:37.418Z,3.58
2022-09-26T13:18:50.847Z,3.20
2022-09-26T13:21:37.388Z,9.05
2022-09-26T13:24:22.716Z,3.53
2022-09-26T13:27:00.510Z,3.67
2022-09-26T13:29:37.617Z,5.07
2022-09-26T13:32:29.113Z,6.40
2022-09-26T13:35:04.173Z,6.32
2022-09-26T13:38:08.267Z,3.88
2022-09-26T13:41:13.496Z,3.35
2022-09-26T13:43:53.474Z,5.60
2022-09-26T13:47:13.423Z,3.55
2022-09-26T13:49:51.151Z,7.47
2022-09-26T13:52:57.023Z,3.05
2022-09-26T13:55:26.459Z,3.65
2022-09-26T13:58:00.879Z,3.47
2022-09-26T14:00:38.926Z,3.30
2022-09-26T14:03:16.626Z,4.95
2022-09-26T14:05:50.811Z,4.10
2022-09-26T14:08:42.725Z,3.15
2022-09-26T14:11:43.921Z,5.57
2022-09-26T14:14:17.790Z,7.25
2022-09-26T14:16:47.386Z,15.98
2022-09-26T14:19:49.148Z,5.13
2022-09-26T14:22:19.115Z,16.50
2022-09-26T14:24:53.593Z,7.15
2022-09-26T14:27:39.480Z,5.68
2022-09-26T14:30:30.477Z,10.48
2022-09-26T14:33:09.321Z,6.15
2022-09-26T14:35:39.680Z,10.52
2022-09-26T14:38:21.128Z,5.57
2022-09-26T14:40:59.601Z,6.68
2022-09-26T14:43:30.342Z,6.47
2022-09-26T14:46:10.654Z,11.55
2022-09-26T14:48:42.764Z,7.72
2022-09-26T14:53:54.728Z,15.98
2022-09-26T14:56:27.559Z,8.77
2022-09-26T14:59:16.624Z,4.93
2022-09-26T15:01:45.043Z,11.90
2022-09-26T15:04:36.280Z,8.73
2022-09-26T15:07:18.142Z,13.10
2022-09-26T15:09:59.846Z,9.50
2022-09-26T15:12:52.545Z,8.80
2022-09-26T15:15:50.550Z,6.35
2022-09-26T15:18:26.455Z,7.00
2022-09-26T15:21:32.874Z,6.25
2022-09-26T15:24:03.876Z,10.23
2022-09-26T15:26:39.921Z,10.35
2022-09-26T15:29:11.537Z,5.90
2022-09-26T15:31:42.389Z,10.90
2022-09-26T15:34:36.000Z,6.25
2022-09-26T15:37:23.075Z,10.88
2022-09-26T15:39:51.289Z,7.85
2022-09-26T15:42:41.569Z,15.23
2022-09-26T15:45:27.465Z,6.85
2022-09-26T15:48:24.275Z,7.38
2022-09-26T15:51:00.194Z,7.68
2022-09-26T15:53:45.424Z,9.13
2022-09-26T15:56:19.539Z,6.32
2022-09-26T15:59:31.672Z,6.40
2022-09-26T16:02:00.473Z,6.95
2022-09-26T16:04:30.274Z,7.47
2022-09-26T16:07:02.158Z,10.63
2022-09-26T16:09:40.235Z,5.93
2022-09-26T16:12:24.769Z,8.25
2022-09-26T16:15:08.026Z,8.32
2022-09-26T16:17:49.127Z,9.38
2022-09-26T16:20:16.442Z,7.70
2022-09-26T16:22:46.428Z,9.85
2022-09-26T16:25:19.669Z,10.02
2022-09-26T16:27:49.497Z,8.70
2022-09-26T16:30:28.606Z,12.05
2022-09-26T16:33:07.885Z,9.35
2022-09-26T16:35:46.567Z,12.45
2022-09-26T16:38:29.361Z,24.88
2022-09-26T16:41:10.724Z,12.18
2022-09-26T16:43:38.510Z,8.60
2022-09-26T16:46:10.306Z,11.93
2022-09-26T16:48:52.407Z,15.95
2022-09-26T16:51:24.830Z,12.75
2022-09-26T16:54:05.285Z,9.93
2022-09-26T16:56:34.131Z,6.95
2022-09-26T16:59:06.668Z,13.43
2022-09-26T17:01:53.013Z,13.60
2022-09-26T17:04:35.656Z,15.45
2022-09-26T17:07:09.805Z,17.33
2022-09-26T17:09:37.109Z,14.13
2022-09-26T17:12:24.441Z,15.15
2022-09-26T17:15:00.796Z,10.50
2022-09-26T17:17:28.282Z,12.38
2022-09-26T17:19:59.185Z,8.98
2022-09-26T17:22:27.513Z,15.25
2022-09-26T17:24:55.357Z,11.15
2022-09-26T17:27:27.387Z,11.57
2022-09-26T17:32:38.179Z,12.13
2022-09-26T17:35:33.138Z,12.75
2022-09-26T17:38:01.086Z,11.52
2022-09-26T17:40:32.146Z,11.80
2022-09-26T17:43:01.941Z,9.75
2022-09-26T17:45:46.674Z,12.45
2022-09-26T17:48:31.419Z,13.48
2022-09-26T17:51:02.157Z,14.70
2022-09-26T17:53:37.154Z,16.67
2022-09-26T17:56:06.499Z,36.80
2022-09-26T17:58:38.129Z,11.73
2022-09-26T18:01:06.500Z,11.63
2022-09-26T18:03:36.693Z,14.57
2022-09-26T18:06:04.123Z,13.55
2022-09-26T18:08:36.340Z,13.73
2022-09-26T18:13:36.486Z,15.20
2022-09-26T18:16:06.234Z,17.38
2022-09-26T18:18:34.638Z,15.23
2022-09-26T18:21:05.222Z,16.38
2022-09-26T18:23:55.664Z,28.25
2022-09-26T18:26:42.201Z,28.73
2022-09-26T18:29:13.586Z,28.35
2022-09-26T18:31:41.617Z,33.47
2022-09-26T18:34:19.937Z,43.40
2022-09-26T18:36:50.000Z,41.20
2022-09-26T18:39:17.353Z,35.63
2022-09-26T18:41:45.303Z,32.78
2022-09-26T18:44:17.325Z,38.28
2022-09-26T18:46:47.062Z,37.75
2022-09-26T18:49:18.939Z,38.65
2022-09-26T18:51:48.440Z,31.10
2022-09-26T18:54:17.130Z,35.75
2022-09-26T18:57:08.063Z,26.88
2022-09-26T18:59:35.065Z,28.42
2022-09-26T19:02:04.229Z,34.42
2022-09-26T19:04:31.746Z,27.30
2022-09-26T19:07:06.569Z,25.40
2022-09-26T19:09:35.727Z,26.48
2022-09-26T19:12:06.263Z,26.88
2022-09-26T19:14:33.404Z,29.60
2022-09-26T19:17:00.568Z,25.52
2022-09-26T19:19:32.497Z,28.67
2022-09-26T19:22:27.280Z,28.85
2022-09-26T19:24:59.381Z,35.92
2022-09-26T19:27:43.022Z,34.60
2022-09-26T19:30:22.401Z,32.80
2022-09-26T19:32:53.100Z,43.28
2022-09-26T19:35:41.612Z,35.28
2022-09-26T19:38:27.530Z,38.92
2022-09-26T19:40:54.693Z,41.95
2022-09-26T19:43:22.738Z,34.45
2022-09-26T19:45:54.477Z,34.35
2022-09-26T19:48:23.435Z,30.40
2022-09-26T19:50:52.534Z,32.97
2022-09-26T19:53:23.732Z,36.85
2022-09-26T19:55:51.237Z,31.95
2022-09-26T19:58:24.255Z,28.33
2022-09-26T20:00:58.421Z,32.80
2022-09-26T20:03:41.799Z,42.25
2022-09-26T20:06:27.257Z,31.77
2022-09-26T20:09:02.171Z,31.80
2022-09-26T20:11:32.312Z,32.85
2022-09-26T20:14:18.172Z,31.52
2022-09-26T20:16:47.293Z,36.35
2022-09-26T20:19:30.995Z,25.88
2022-09-26T20:22:02.043Z,33.80
2022-09-26T20:24:37.081Z,33.08
2022-09-26T20:27:07.549Z,42.47
2022-09-26T20:29:55.296Z,33.20
2022-09-26T20:32:22.393Z,34.13
2022-09-26T20:34:49.572Z,26.73
2022-09-26T20:37:23.704Z,27.63
2022-09-26T20:39:52.531Z,27.83
2022-09-26T20:42:19.940Z,33.33
2022-09-26T20:44:50.853Z,23.45
2022-09-26T20:47:21.717Z,25.27
2022-09-26T20:50:01.359Z,27.33
2022-09-26T20:52:30.188Z,23.92
2022-09-26T20:54:57.657Z,21.95
2022-09-26T20:57:25.111Z,21.73
2022-09-26T20:59:52.387Z,21.13
2022-09-26T21:02:39.346Z,23.98
2022-09-26T21:05:17.979Z,25.98
2022-09-26T21:07:47.739Z,29.45
2022-09-26T21:10:34.765Z,27.58
2022-09-26T21:13:03.625Z,27.27
2022-09-26T21:15:33.024Z,25.42
2022-09-26T21:18:01.619Z,25.60
2022-09-26T21:20:31.316Z,28.30
2022-09-26T21:23:01.463Z,28.63
2022-09-26T21:25:31.195Z,25.67
2022-09-26T21:28:03.226Z,25.92
2022-09-26T21:30:33.680Z,26.90
2022-09-26T21:33:03.464Z,32.10
2022-09-26T21:35:31.987Z,29.23
2022-09-26T21:38:00.987Z,29.70
2022-09-26T21:40:31.803Z,25.85
2022-09-26T21:43:35.585Z,36.50
2022-09-26T21:46:03.071Z,27.63
2022-09-26T21:48:30.134Z,28.63
2022-09-26T21:51:04.800Z,27.33
2022-09-26T21:53:46.453Z,29.30
2022-09-26T21:56:21.865Z,33.45
2022-09-26T21:58:49.589Z,40.15
2022-09-26T22:01:18.898Z,28.08
2022-09-26T22:03:45.988Z,25.42
2022-09-26T22:06:13.306Z,28.40
2022-09-26T22:08:40.873Z,33.72
2022-09-26T22:11:10.778Z,33.45
2022-09-26T22:13:39.143Z,35.95
2022-09-26T22:16:11.867Z,35.45
2022-09-26T22:18:40.549Z,42.50
2022-09-26T22:21:09.860Z,33.67
2022-09-26T22:23:37.389Z,28.77
2022-09-26T22:26:05.280Z,31.48
2022-09-26T22:28:32.589Z,36.78
2022-09-26T22:31:05.213Z,32.70
2022-09-26T22:33:33.560Z,32.97
2022-09-26T22:36:03.205Z,32.90
2022-09-26T22:38:30.598Z,35.00
2022-09-26T22:41:00.084Z,40.72
2022-09-26T22:43:30.188Z,37.45
2022-09-26T22:46:10.364Z,35.33
2022-09-26T22:48:44.334Z,38.42
2022-09-26T22:51:11.649Z,32.60
2022-09-26T22:53:40.282Z,36.50
2022-09-26T22:56:12.417Z,39.35
2022-09-26T22:58:47.943Z,34.95
2022-09-26T23:01:22.367Z,37.80
2022-09-26T23:03:50.558Z,43.97
2022-09-26T23:06:17.556Z,42.92
2022-09-26T23:08:44.777Z,38.63
2022-09-26T23:11:14.633Z,38.72
2022-09-26T23:13:44.092Z,36.05
2022-09-26T23:16:15.022Z,42.58
2022-09-26T23:18:43.758Z,39.55
2022-09-26T23:21:20.502Z,39.30
2022-09-26T23:23:55.074Z,50.58
2022-09-26T23:26:28.649Z,44.63
2022-09-26T23:29:00.129Z,41.17
2022-09-26T23:31:28.527Z,36.00
2022-09-26T23:33:56.387Z,35.72
2022-09-26T23:36:26.637Z,39.13
2022-09-26T23:38:56.414Z,36.20
2022-09-26T23:41:25.796Z,35.08
2022-09-26T23:43:55.101Z,38.17
2022-09-26T23:46:22.203Z,35.20
2022-09-26T23:48:49.219Z,30.10
2022-09-26T23:51:16.336Z,30.20
2022-09-26T23:53:43.414Z,38.10
2022-09-26T23:56:13.762Z,33.83
2022-09-26T23:58:41.652Z,33.55
